CST,Max TemperatureF,Mean TemperatureF,Min TemperatureF,Max Dew PointF,MeanDew PointF,Min DewpointF,Max Humidity, Mean Humidity, Min Humidity, Max Sea Level PressureIn, Mean Sea Level PressureIn, Min Sea Level PressureIn, Max VisibilityMiles, Mean VisibilityMiles, Min VisibilityMiles, Max Wind SpeedMPH, Mean Wind SpeedMPH, Max Gust SpeedMPH,PrecipitationIn, CloudCover, Events, WindDirDegrees
2013-12-1,63,50,36,44,41,36,99,81,48,30.09,30.01,29.91,10,10,10,8,4,,0.00,0,,349
2013-12-2,67,48,30,44,37,30,100,77,33,29.90,29.75,29.60,10,10,5,6,2,,0.00,0,,167
2013-12-3,74,54,34,41,37,35,99,73,25,29.60,29.53,29.47,10,10,10,10,5,,0.00,0,,133
2013-12-4,45,38,30,34,29,16,86,67,53,30.09,29.78,29.49,10,10,4,22,9,25,0.00,1,,2
2013-12-5,30,24,17,18,12,5,93,66,42,30.32,30.24,30.09,10,7,0,24,18,32,0.03,6,Snow,14
2013-12-6,22,15,6,16,13,-1,93,84,62,30.64,30.34,30.24,10,5,1,23,15,30,0.02,7,Snow,6
2013-12-7,18,11,4,12,5,-3,74,68,63,30.69,30.48,30.29,10,10,10,15,9,,0.00,6,,31
2013-12-8,32,24,17,26,17,12,94,88,76,30.26,30.11,29.95,10,10,7,17,8,,0.00,6,Snow,174
2013-12-9,25,18,11,21,17,8,93,81,68,30.49,30.32,30.17,10,10,10,17,12,24,0.00,6,,11
2013-12-10,35,18,2,28,15,0,88,82,69,30.50,30.39,30.24,10,10,10,13,5,,0.00,1,,158
2013-12-11,38,28,19,27,22,17,93,78,63,30.65,30.50,30.24,10,10,10,21,11,29,0.00,0,,25
2013-12-12,37,28,18,34,26,15,94,83,70,30.64,30.44,30.22,10,10,10,10,5,,0.00,2,Rain,166
2013-12-13,54,44,35,43,38,34,100,90,62,30.20,29.96,29.70,10,9,0,21,11,71,0.01,5,Fog-Rain,144
2013-12-14,48,38,27,32,26,22,86,68,34,30.34,30.18,29.85,10,10,10,26,17,32,0.00,2,,340
2013-12-15,61,42,24,34,27,23,94,68,28,30.33,30.25,30.17,10,10,10,14,4,,0.00,0,,239
2013-12-16,66,46,26,35,30,25,92,66,28,30.21,30.16,30.12,10,10,10,9,3,,0.00,0,,102
2013-12-17,65,48,30,35,31,26,87,62,30,30.32,30.26,30.19,10,10,5,13,5,,0.00,0,,24
2013-12-18,68,48,28,44,32,26,93,71,30,30.24,30.09,29.83,10,8,4,22,4,25,0.00,0,,135
2013-12-19,68,58,48,50,47,44,100,75,44,29.80,29.69,29.62,10,10,7,23,14,26,0.00,1,,168
2013-12-20,51,40,29,48,28,17,100,86,55,30.00,29.86,29.68,10,7,4,23,8,30,0.53,7,Rain,36
2013-12-21,32,32,31,32,32,28,100,100,87,29.82,29.69,29.58,6,4,2,0,0,,0.42,8,Rain,-1
2013-12-22,35,30,23,28,27,23,99,86,70,30.40,30.27,30.22,10,9,6,0,0,,0.00,1,,-1
2013-12-23,41,30,20,31,27,20,100,90,63,30.58,30.50,30.38,10,10,9,14,3,,0.00,5,,78
2013-12-24,47,36,24,40,27,24,100,98,70,30.56,30.39,30.13,10,4,0,15,9,,0.00,6,Fog,161
2013-12-25,49,40,30,34,32,27,100,93,48,30.47,30.30,30.19,10,6,2,21,14,24,0.00,5,,16
2013-12-26,55,39,23,32,27,22,94,74,29,30.45,30.39,30.30,10,10,10,10,4,,0.00,0,,220
2013-12-27,58,40,21,33,27,19,96,72,33,30.42,30.37,30.30,10,10,10,10,2,,0.00,1,,177
2013-12-28,57,41,25,44,33,24,100,90,45,30.26,30.00,29.90,10,7,1,17,5,24,0.00,1,,139
2013-12-29,42,32,20,43,26,12,100,82,51,30.37,30.12,29.90,10,7,0,33,11,43,0.00,5,Fog,17
2013-12-30,44,28,13,22,17,11,93,68,40,30.44,30.34,30.28,10,10,9,8,3,,0.00,0,,266
2013-12-31,55,36,17,29,23,16,95,74,34,30.41,30.29,30.08,10,9,6,18,5,23,0.00,0,,144